Accueil
METAR-TAF:

METAR-TAF

Aéroports :

Prato Nevoso, Italie

Monte Malanotte

latitude: 44-15N, longitude: 007-48E, altitude: 1741 m

Observation

Le bulletin a été fait il y a 1 heure et 15 minutes, à 09:55 UTC
Vent 3 kt de nord-ouest, variant entre ouest et nord/nord-est
Température 6°C
Humidité 87%
Pression 1013 hPa
Visibilité: 5000 m
brume

METAR: LIMY 250955Z 32003KT 260V030 5000 BR NSC 06/04 Q1013 RMK BKN BKN190 VAL FOSCHIA VIS MIN 5000

Heure: 12:10 (11:10 UTC)


TAF: absent

Observations et prévisions météorologiques de plus de 4000 aéroports (messages METAR et TAF).

Les stations disponibles sont représentées par des disques jaunes et rouges sur la carte.

Passer la souris dessus pour voir le nom de la station.

Cliquer dessus pour voir les observations et prévisions météorologiques.

Pour changer de carte: cliquez sur les boutons verts avec une croix noire pour zoomer, sur le bouton vert avec un tiret pour effectuer un zoom arrière, ou sur les flèches vertes pour les cartes adjacentes.


METAR-TAF: